sensor_id;sensor_type;location;lat;lon;timestamp;pressure;altitude;pressure_sealevel;temperature;humidity
49627;BME280;35527;54.616;39.786;2023-04-28T00:00:10;99510.16;;;13.02;94.34
49627;BME280;35527;54.616;39.786;2023-04-28T00:03:14;99507.56;;;13.02;95.57
49627;BME280;35527;54.616;39.786;2023-04-28T00:06:19;99492.22;;;12.82;96.44
49627;BME280;35527;54.616;39.786;2023-04-28T00:09:25;99485.16;;;12.84;96.68
49627;BME280;35527;54.616;39.786;2023-04-28T00:12:29;99506.59;;;12.88;96.99
49627;BME280;35527;54.616;39.786;2023-04-28T00:15:33;99509.06;;;12.91;96.84
49627;BME280;35527;54.616;39.786;2023-04-28T00:18:35;99487.84;;;12.82;96.75
49627;BME280;35527;54.616;39.786;2023-04-28T00:21:43;99481.66;;;12.85;96.57
49627;BME280;35527;54.616;39.786;2023-04-28T00:24:45;99482.75;;;12.97;95.14
49627;BME280;35527;54.616;39.786;2023-04-28T00:27:52;99490.28;;;13.01;94.66
49627;BME280;35527;54.616;39.786;2023-04-28T00:30:55;99490.81;;;13.08;93.93
49627;BME280;35527;54.616;39.786;2023-04-28T00:33:59;99507.28;;;13.07;94.02
49627;BME280;35527;54.616;39.786;2023-04-28T00:37:04;99507.81;;;12.98;94.20
49627;BME280;35527;54.616;39.786;2023-04-28T00:40:08;99497.59;;;12.95;94.54
49627;BME280;35527;54.616;39.786;2023-04-28T00:43:13;99507.84;;;13.29;92.19
49627;BME280;35527;54.616;39.786;2023-04-28T00:46:26;99497.19;;;13.02;92.82
49627;BME280;35527;54.616;39.786;2023-04-28T00:49:30;99481.59;;;13.02;93.03
49627;BME280;35527;54.616;39.786;2023-04-28T00:52:38;99499.09;;;12.83;94.22
49627;BME280;35527;54.616;39.786;2023-04-28T00:55:42;99505.66;;;12.73;95.70
49627;BME280;35527;54.616;39.786;2023-04-28T00:58:48;99473.19;;;12.66;95.54
49627;BME280;35527;54.616;39.786;2023-04-28T01:01:51;99494.13;;;12.78;95.11
49627;BME280;35527;54.616;39.786;2023-04-28T01:04:57;99495.06;;;12.77;95.16
49627;BME280;35527;54.616;39.786;2023-04-28T01:08:01;99501.31;;;12.73;94.82
49627;BME280;35527;54.616;39.786;2023-04-28T01:11:05;99500.75;;;12.68;94.92
49627;BME280;35527;54.616;39.786;2023-04-28T01:14:26;99512.34;;;12.94;93.14
49627;BME280;35527;54.616;39.786;2023-04-28T01:17:31;99496.41;;;13.00;91.69
49627;BME280;35527;54.616;39.786;2023-04-28T01:20:36;99518.84;;;13.01;91.96
49627;BME280;35527;54.616;39.786;2023-04-28T01:23:40;99508.44;;;12.70;93.52
49627;BME280;35527;54.616;39.786;2023-04-28T01:26:43;99500.69;;;12.52;95.93
49627;BME280;35527;54.616;39.786;2023-04-28T01:29:52;99505.22;;;12.65;96.85
49627;BME280;35527;54.616;39.786;2023-04-28T01:32:55;99509.19;;;12.72;96.22
49627;BME280;35527;54.616;39.786;2023-04-28T01:36:01;99496.44;;;12.67;96.38
49627;BME280;35527;54.616;39.786;2023-04-28T01:39:06;99501.56;;;12.69;96.50
49627;BME280;35527;54.616;39.786;2023-04-28T01:42:10;99486.72;;;12.55;97.01
49627;BME280;35527;54.616;39.786;2023-04-28T01:45:14;99509.44;;;12.67;97.14
49627;BME280;35527;54.616;39.786;2023-04-28T01:48:21;99496.88;;;12.59;97.27
49627;BME280;35527;54.616;39.786;2023-04-28T01:51:24;99522.34;;;12.69;97.95
49627;BME280;35527;54.616;39.786;2023-04-28T01:54:27;99508.34;;;12.38;99.68
49627;BME280;35527;54.616;39.786;2023-04-28T01:57:33;99528.91;;;12.58;98.88
49627;BME280;35527;54.616;39.786;2023-04-28T02:00:38;99528.03;;;12.59;99.40
49627;BME280;35527;54.616;39.786;2023-04-28T02:03:41;99519.94;;;12.48;99.27
49627;BME280;35527;54.616;39.786;2023-04-28T02:06:47;99543.66;;;12.58;98.40
49627;BME280;35527;54.616;39.786;2023-04-28T02:09:53;99531.91;;;12.68;97.11
49627;BME280;35527;54.616;39.786;2023-04-28T02:13:01;99527.63;;;12.50;98.48
49627;BME280;35527;54.616;39.786;2023-04-28T02:16:04;99524.94;;;12.69;97.37
49627;BME280;35527;54.616;39.786;2023-04-28T02:19:07;99532.97;;;12.64;97.07
49627;BME280;35527;54.616;39.786;2023-04-28T02:22:10;99521.84;;;12.45;98.03
49627;BME280;35527;54.616;39.786;2023-04-28T02:25:16;99529.63;;;12.78;97.84
49627;BME280;35527;54.616;39.786;2023-04-28T02:28:19;99531.06;;;12.83;96.47
49627;BME280;35527;54.616;39.786;2023-04-28T02:31:23;99539.22;;;12.93;95.85
49627;BME280;35527;54.616;39.786;2023-04-28T02:34:28;99537.38;;;12.95;95.91
49627;BME280;35527;54.616;39.786;2023-04-28T02:37:33;99538.81;;;13.01;95.75
49627;BME280;35527;54.616;39.786;2023-04-28T02:40:37;99535.44;;;12.99;96.11
49627;BME280;35527;54.616;39.786;2023-04-28T02:43:40;99530.56;;;12.77;96.70
49627;BME280;35527;54.616;39.786;2023-04-28T02:46:43;99546.75;;;12.82;97.34
49627;BME280;35527;54.616;39.786;2023-04-28T02:49:49;99556.28;;;12.81;97.78
49627;BME280;35527;54.616;39.786;2023-04-28T02:52:52;99549.91;;;12.71;97.94
49627;BME280;35527;54.616;39.786;2023-04-28T02:55:56;99546.47;;;12.71;98.20
49627;BME280;35527;54.616;39.786;2023-04-28T02:59:00;99545.72;;;12.69;98.57
49627;BME280;35527;54.616;39.786;2023-04-28T03:02:05;99569.16;;;12.67;99.67
49627;BME280;35527;54.616;39.786;2023-04-28T03:05:08;99557.16;;;12.65;99.18
49627;BME280;35527;54.616;39.786;2023-04-28T03:08:12;99582.28;;;12.64;100.00
49627;BME280;35527;54.616;39.786;2023-04-28T03:11:18;99565.19;;;12.60;100.00
49627;BME280;35527;54.616;39.786;2023-04-28T03:14:21;99565.53;;;12.54;100.00
49627;BME280;35527;54.616;39.786;2023-04-28T03:17:25;99575.34;;;12.65;100.00
49627;BME280;35527;54.616;39.786;2023-04-28T03:20:27;99552.44;;;12.55;100.00
49627;BME280;35527;54.616;39.786;2023-04-28T03:23:30;99576.47;;;12.76;100.00
49627;BME280;35527;54.616;39.786;2023-04-28T03:26:35;99563.56;;;12.75;100.00
49627;BME280;35527;54.616;39.786;2023-04-28T03:29:39;99582.31;;;12.97;100.00
49627;BME280;35527;54.616;39.786;2023-04-28T03:32:42;99562.00;;;12.88;100.00
49627;BME280;35527;54.616;39.786;2023-04-28T03:35:45;99576.34;;;13.28;99.85
49627;BME280;35527;54.616;39.786;2023-04-28T03:38:50;99555.94;;;13.21;99.54
49627;BME280;35527;54.616;39.786;2023-04-28T03:41:53;99567.81;;;13.42;97.95
49627;BME280;35527;54.616;39.786;2023-04-28T03:45:15;99592.03;;;13.43;98.65
49627;BME280;35527;54.616;39.786;2023-04-28T03:48:21;99594.78;;;13.71;96.72
49627;BME280;35527;54.616;39.786;2023-04-28T03:51:29;99587.44;;;13.48;97.66
49627;BME280;35527;54.616;39.786;2023-04-28T03:54:34;99592.97;;;14.04;95.44
49627;BME280;35527;54.616;39.786;2023-04-28T03:57:38;99568.97;;;13.98;92.89
49627;BME280;35527;54.616;39.786;2023-04-28T04:00:41;99587.81;;;13.88;93.99
49627;BME280;35527;54.616;39.786;2023-04-28T04:03:48;99588.53;;;14.06;94.68
49627;BME280;35527;54.616;39.786;2023-04-28T04:06:52;99586.16;;;15.33;91.16
49627;BME280;35527;54.616;39.786;2023-04-28T04:09:58;99564.66;;;16.38;76.08
49627;BME280;35527;54.616;39.786;2023-04-28T04:13:26;99581.84;;;16.15;75.45
49627;BME280;35527;54.616;39.786;2023-04-28T04:16:39;99585.06;;;15.64;79.05
49627;BME280;35527;54.616;39.786;2023-04-28T04:19:46;99585.91;;;15.65;80.50
49627;BME280;35527;54.616;39.786;2023-04-28T04:22:49;99595.47;;;16.46;77.82
49627;BME280;35527;54.616;39.786;2023-04-28T04:25:53;99581.69;;;18.87;63.41
49627;BME280;35527;54.616;39.786;2023-04-28T04:29:00;99591.81;;;20.65;53.93
49627;BME280;35527;54.616;39.786;2023-04-28T04:32:03;99600.63;;;19.02;57.12
49627;BME280;35527;54.616;39.786;2023-04-28T04:35:07;99589.84;;;17.52;62.96
49627;BME280;35527;54.616;39.786;2023-04-28T04:38:11;99592.78;;;16.98;68.34
49627;BME280;35527;54.616;39.786;2023-04-28T04:41:16;99592.50;;;16.77;70.84
49627;BME280;35527;54.616;39.786;2023-04-28T04:44:23;99593.50;;;16.62;72.38
49627;BME280;35527;54.616;39.786;2023-04-28T04:47:27;99595.28;;;16.61;73.52
49627;BME280;35527;54.616;39.786;2023-04-28T04:50:34;99558.38;;;16.53;73.35
49627;BME280;35527;54.616;39.786;2023-04-28T04:53:39;99587.66;;;16.58;74.35
49627;BME280;35527;54.616;39.786;2023-04-28T04:56:43;99600.06;;;16.42;76.21
49627;BME280;35527;54.616;39.786;2023-04-28T04:59:54;99594.56;;;16.19;77.18
49627;BME280;35527;54.616;39.786;2023-04-28T05:02:58;99575.13;;;15.71;81.54
49627;BME280;35527;54.616;39.786;2023-04-28T05:06:02;99608.34;;;15.67;83.86
49627;BME280;35527;54.616;39.786;2023-04-28T05:09:20;99594.75;;;15.06;88.15
49627;BME280;35527;54.616;39.786;2023-04-28T05:12:25;99578.41;;;14.46;95.36
49627;BME280;35527;54.616;39.786;2023-04-28T05:15:29;99603.47;;;14.32;99.13
49627;BME280;35527;54.616;39.786;2023-04-28T05:18:53;99594.84;;;14.32;100.00
49627;BME280;35527;54.616;39.786;2023-04-28T05:21:56;99599.66;;;14.08;100.00
49627;BME280;35527;54.616;39.786;2023-04-28T05:25:03;99580.31;;;13.97;100.00
49627;BME280;35527;54.616;39.786;2023-04-28T05:28:11;99581.41;;;13.93;100.00
49627;BME280;35527;54.616;39.786;2023-04-28T05:31:16;99580.00;;;14.18;100.00
49627;BME280;35527;54.616;39.786;2023-04-28T05:34:19;99585.34;;;14.01;100.00
49627;BME280;35527;54.616;39.786;2023-04-28T05:37:23;99593.94;;;14.47;100.00
49627;BME280;35527;54.616;39.786;2023-04-28T05:40:28;99565.38;;;14.31;100.00
49627;BME280;35527;54.616;39.786;2023-04-28T05:43:30;99596.91;;;14.41;100.00
49627;BME280;35527;54.616;39.786;2023-04-28T05:46:33;99574.69;;;14.05;100.00
49627;BME280;35527;54.616;39.786;2023-04-28T05:49:38;99610.19;;;13.90;100.00
49627;BME280;35527;54.616;39.786;2023-04-28T05:52:43;99583.38;;;13.74;100.00
49627;BME280;35527;54.616;39.786;2023-04-28T05:55:47;99594.34;;;13.79;100.00
49627;BME280;35527;54.616;39.786;2023-04-28T05:58:51;99580.44;;;13.80;100.00
49627;BME280;35527;54.616;39.786;2023-04-28T06:01:54;99584.06;;;14.08;100.00
49627;BME280;35527;54.616;39.786;2023-04-28T06:05:00;99591.81;;;14.39;100.00
49627;BME280;35527;54.616;39.786;2023-04-28T06:08:06;99616.16;;;14.69;100.00
49627;BME280;35527;54.616;39.786;2023-04-28T06:11:11;99602.19;;;15.27;100.00
49627;BME280;35527;54.616;39.786;2023-04-28T06:14:14;99600.66;;;16.20;100.00
49627;BME280;35527;54.616;39.786;2023-04-28T06:17:18;99607.41;;;17.14;90.54
49627;BME280;35527;54.616;39.786;2023-04-28T06:20:24;99596.91;;;18.24;81.53
49627;BME280;35527;54.616;39.786;2023-04-28T06:23:29;99602.16;;;18.82;74.11
49627;BME280;35527;54.616;39.786;2023-04-28T06:26:35;99599.72;;;17.73;76.41
49627;BME280;35527;54.616;39.786;2023-04-28T06:29:49;99601.16;;;17.03;84.94
49627;BME280;35527;54.616;39.786;2023-04-28T06:32:52;99611.31;;;17.45;86.23
49627;BME280;35527;54.616;39.786;2023-04-28T06:35:56;99625.53;;;18.85;72.05
49627;BME280;35527;54.616;39.786;2023-04-28T06:39:00;99620.78;;;19.24;70.23
49627;BME280;35527;54.616;39.786;2023-04-28T06:42:03;99623.97;;;21.00;61.97
49627;BME280;35527;54.616;39.786;2023-04-28T06:45:10;99625.03;;;21.18;56.90
49627;BME280;35527;54.616;39.786;2023-04-28T06:48:13;99627.69;;;20.97;55.97
49627;BME280;35527;54.616;39.786;2023-04-28T06:51:23;99622.09;;;19.52;61.11
49627;BME280;35527;54.616;39.786;2023-04-28T06:54:27;99632.44;;;18.75;67.40
49627;BME280;35527;54.616;39.786;2023-04-28T06:57:32;99621.03;;;19.43;64.56
49627;BME280;35527;54.616;39.786;2023-04-28T07:00:37;99630.19;;;20.15;63.54
49627;BME280;35527;54.616;39.786;2023-04-28T07:03:49;99623.72;;;23.46;50.88
49627;BME280;35527;54.616;39.786;2023-04-28T07:06:54;99625.94;;;25.78;43.51
49627;BME280;35527;54.616;39.786;2023-04-28T07:10:03;99629.59;;;24.13;44.92
49627;BME280;35527;54.616;39.786;2023-04-28T07:13:08;99628.31;;;25.13;43.36
49627;BME280;35527;54.616;39.786;2023-04-28T07:16:14;99612.59;;;25.54;40.61
49627;BME280;35527;54.616;39.786;2023-04-28T07:19:17;99627.53;;;24.24;44.32
49627;BME280;35527;54.616;39.786;2023-04-28T07:22:21;99618.31;;;23.93;45.27
49627;BME280;35527;54.616;39.786;2023-04-28T07:25:24;99629.50;;;23.31;45.13
49627;BME280;35527;54.616;39.786;2023-04-28T07:28:29;99624.59;;;22.52;47.77
49627;BME280;35527;54.616;39.786;2023-04-28T07:31:33;99607.88;;;21.74;49.83
49627;BME280;35527;54.616;39.786;2023-04-28T07:34:39;99622.47;;;22.17;49.10
49627;BME280;35527;54.616;39.786;2023-04-28T07:37:42;99602.13;;;22.19;48.81
49627;BME280;35527;54.616;39.786;2023-04-28T07:40:46;99609.44;;;23.11;47.97
49627;BME280;35527;54.616;39.786;2023-04-28T07:43:50;99634.09;;;24.38;43.54
49627;BME280;35527;54.616;39.786;2023-04-28T07:46:55;99615.34;;;25.02;42.26
49627;BME280;35527;54.616;39.786;2023-04-28T07:49:58;99611.41;;;24.80;41.53
49627;BME280;35527;54.616;39.786;2023-04-28T07:53:11;99612.28;;;22.80;45.97
49627;BME280;35527;54.616;39.786;2023-04-28T07:56:15;99616.25;;;21.08;50.27
49627;BME280;35527;54.616;39.786;2023-04-28T07:59:23;99608.41;;;20.66;52.14
49627;BME280;35527;54.616;39.786;2023-04-28T08:02:25;99617.91;;;22.58;49.18
49627;BME280;35527;54.616;39.786;2023-04-28T08:05:32;99611.78;;;22.67;47.54
49627;BME280;35527;54.616;39.786;2023-04-28T08:08:37;99602.50;;;23.10;46.93
49627;BME280;35527;54.616;39.786;2023-04-28T08:11:41;99627.56;;;22.77;46.09
49627;BME280;35527;54.616;39.786;2023-04-28T08:14:44;99642.13;;;21.33;49.93
49627;BME280;35527;54.616;39.786;2023-04-28T08:17:54;99609.78;;;20.28;52.93
49627;BME280;35527;54.616;39.786;2023-04-28T08:20:57;99608.72;;;20.31;53.77
49627;BME280;35527;54.616;39.786;2023-04-28T08:24:01;99591.44;;;20.70;53.28
49627;BME280;35527;54.616;39.786;2023-04-28T08:27:06;99573.28;;;20.98;52.39
49627;BME280;35527;54.616;39.786;2023-04-28T08:30:14;99576.88;;;20.97;52.64
49627;BME280;35527;54.616;39.786;2023-04-28T08:33:16;99618.50;;;20.29;54.38
49627;BME280;35527;54.616;39.786;2023-04-28T08:36:21;99596.00;;;19.83;55.67
49627;BME280;35527;54.616;39.786;2023-04-28T08:39:26;99569.72;;;19.39;58.04
49627;BME280;35527;54.616;39.786;2023-04-28T08:42:33;99615.06;;;19.30;59.05
49627;BME280;35527;54.616;39.786;2023-04-28T08:45:41;99576.97;;;19.47;59.08
49627;BME280;35527;54.616;39.786;2023-04-28T08:48:44;99587.59;;;19.45;59.12
49627;BME280;35527;54.616;39.786;2023-04-28T08:51:55;99597.91;;;19.15;59.20
49627;BME280;35527;54.616;39.786;2023-04-28T08:55:10;99591.81;;;19.03;60.55
49627;BME280;35527;54.616;39.786;2023-04-28T08:58:14;99605.88;;;18.90;61.37
49627;BME280;35527;54.616;39.786;2023-04-28T09:01:18;99591.78;;;18.69;62.52
49627;BME280;35527;54.616;39.786;2023-04-28T09:04:21;99572.34;;;18.60;63.45
49627;BME280;35527;54.616;39.786;2023-04-28T09:07:29;99575.41;;;18.43;64.70
49627;BME280;35527;54.616;39.786;2023-04-28T09:10:33;99580.31;;;18.70;64.53
49627;BME280;35527;54.616;39.786;2023-04-28T09:13:40;99580.03;;;18.86;63.83
49627;BME280;35527;54.616;39.786;2023-04-28T09:16:43;99569.75;;;18.94;62.79
49627;BME280;35527;54.616;39.786;2023-04-28T09:19:49;99574.31;;;19.03;63.38
49627;BME280;35527;54.616;39.786;2023-04-28T09:22:54;99561.66;;;18.86;62.20
49627;BME280;35527;54.616;39.786;2023-04-28T09:26:06;99556.22;;;18.65;63.89
49627;BME280;35527;54.616;39.786;2023-04-28T09:29:12;99575.84;;;19.06;63.68
49627;BME280;35527;54.616;39.786;2023-04-28T09:32:22;99555.50;;;19.53;60.98
49627;BME280;35527;54.616;39.786;2023-04-28T09:35:42;99580.63;;;20.10;58.24
49627;BME280;35527;54.616;39.786;2023-04-28T09:38:47;99565.97;;;20.50;56.21
49627;BME280;35527;54.616;39.786;2023-04-28T09:41:50;99577.31;;;20.71;54.24
49627;BME280;35527;54.616;39.786;2023-04-28T09:44:56;99587.78;;;20.61;54.95
49627;BME280;35527;54.616;39.786;2023-04-28T09:48:08;99589.13;;;20.02;54.56
49627;BME280;35527;54.616;39.786;2023-04-28T09:51:19;99577.06;;;19.56;54.98
49627;BME280;35527;54.616;39.786;2023-04-28T09:54:24;99581.44;;;19.24;55.08
49627;BME280;35527;54.616;39.786;2023-04-28T09:57:35;99593.00;;;19.10;56.92
49627;BME280;35527;54.616;39.786;2023-04-28T10:00:40;99583.59;;;18.96;57.66
49627;BME280;35527;54.616;39.786;2023-04-28T10:03:47;99569.75;;;18.94;57.95
49627;BME280;35527;54.616;39.786;2023-04-28T10:06:51;99572.97;;;19.20;57.87
49627;BME280;35527;54.616;39.786;2023-04-28T10:09:55;99579.00;;;19.54;56.86
49627;BME280;35527;54.616;39.786;2023-04-28T10:12:59;99591.47;;;19.85;55.94
49627;BME280;35527;54.616;39.786;2023-04-28T10:16:09;99584.91;;;20.11;55.64
49627;BME280;35527;54.616;39.786;2023-04-28T10:19:15;99575.16;;;20.23;55.00
49627;BME280;35527;54.616;39.786;2023-04-28T10:23:06;99571.34;;;20.27;54.81
49627;BME280;35527;54.616;39.786;2023-04-28T10:26:26;99576.97;;;20.22;54.70
49627;BME280;35527;54.616;39.786;2023-04-28T10:29:51;99577.94;;;20.00;52.92
49627;BME280;35527;54.616;39.786;2023-04-28T10:36:51;99583.91;;;20.23;52.21
49627;BME280;35527;54.616;39.786;2023-04-28T10:43:40;99578.25;;;20.60;51.83
49627;BME280;35527;54.616;39.786;2023-04-28T10:47:04;99562.50;;;21.01;51.49
49627;BME280;35527;54.616;39.786;2023-04-28T10:50:15;99554.25;;;21.25;51.11
49627;BME280;35527;54.616;39.786;2023-04-28T10:53:18;99574.19;;;21.58;50.26
49627;BME280;35527;54.616;39.786;2023-04-28T10:56:24;99566.28;;;21.77;49.99
49627;BME280;35527;54.616;39.786;2023-04-28T10:59:28;99547.53;;;21.51;50.42
49627;BME280;35527;54.616;39.786;2023-04-28T11:02:37;99567.22;;;21.57;51.13
49627;BME280;35527;54.616;39.786;2023-04-28T11:06:21;99566.75;;;22.21;50.19
49627;BME280;35527;54.616;39.786;2023-04-28T11:12:36;99551.69;;;23.26;46.73
49627;BME280;35527;54.616;39.786;2023-04-28T11:16:02;99551.91;;;22.67;46.43
49627;BME280;35527;54.616;39.786;2023-04-28T11:19:08;99549.38;;;21.90;48.73
49627;BME280;35527;54.616;39.786;2023-04-28T11:22:16;99552.69;;;21.92;49.42
49627;BME280;35527;54.616;39.786;2023-04-28T11:25:23;99514.72;;;22.23;49.12
49627;BME280;35527;54.616;39.786;2023-04-28T11:28:28;99519.59;;;23.21;46.20
49627;BME280;35527;54.616;39.786;2023-04-28T11:31:32;99517.31;;;23.89;42.95
49627;BME280;35527;54.616;39.786;2023-04-28T11:34:36;99484.16;;;23.23;43.55
49627;BME280;35527;54.616;39.786;2023-04-28T11:37:40;99518.13;;;23.54;43.45
49627;BME280;35527;54.616;39.786;2023-04-28T11:40:56;99509.28;;;23.73;43.41
49627;BME280;35527;54.616;39.786;2023-04-28T11:44:00;99489.75;;;23.92;43.22
49627;BME280;35527;54.616;39.786;2023-04-28T11:47:03;99484.34;;;24.19;42.61
49627;BME280;35527;54.616;39.786;2023-04-28T11:50:08;99484.53;;;24.26;42.85
49627;BME280;35527;54.616;39.786;2023-04-28T11:53:10;99474.44;;;23.95;43.41
49627;BME280;35527;54.616;39.786;2023-04-28T11:56:14;99465.16;;;23.37;44.48
49627;BME280;35527;54.616;39.786;2023-04-28T11:59:25;99444.00;;;23.02;45.21
49627;BME280;35527;54.616;39.786;2023-04-28T12:02:30;99444.75;;;23.12;45.37
49627;BME280;35527;54.616;39.786;2023-04-28T12:05:33;99445.72;;;22.83;46.02
49627;BME280;35527;54.616;39.786;2023-04-28T12:08:39;99450.03;;;22.66;46.68
49627;BME280;35527;54.616;39.786;2023-04-28T12:12:00;99449.09;;;22.48;46.96
49627;BME280;35527;54.616;39.786;2023-04-28T12:15:39;99439.91;;;22.05;48.25
49627;BME280;35527;54.616;39.786;2023-04-28T12:18:57;99434.97;;;21.82;49.22
49627;BME280;35527;54.616;39.786;2023-04-28T12:22:06;99438.34;;;21.55;49.83
49627;BME280;35527;54.616;39.786;2023-04-28T12:25:11;99437.88;;;21.21;50.44
49627;BME280;35527;54.616;39.786;2023-04-28T12:28:17;99449.63;;;20.98;51.57
49627;BME280;35527;54.616;39.786;2023-04-28T12:31:20;99446.59;;;20.62;53.05
49627;BME280;35527;54.616;39.786;2023-04-28T12:34:23;99422.75;;;20.23;54.30
49627;BME280;35527;54.616;39.786;2023-04-28T12:37:30;99430.47;;;20.15;56.47
49627;BME280;35527;54.616;39.786;2023-04-28T12:40:34;99459.13;;;19.76;59.18
49627;BME280;35527;54.616;39.786;2023-04-28T12:43:38;99504.34;;;19.36;68.52
49627;BME280;35527;54.616;39.786;2023-04-28T12:46:42;99484.53;;;18.66;82.76
49627;BME280;35527;54.616;39.786;2023-04-28T12:49:51;99486.41;;;17.84;91.29
49627;BME280;35527;54.616;39.786;2023-04-28T12:52:54;99497.78;;;17.47;88.28
49627;BME280;35527;54.616;39.786;2023-04-28T12:55:59;99502.41;;;17.20;87.65
49627;BME280;35527;54.616;39.786;2023-04-28T12:59:03;99499.44;;;17.24;81.41
49627;BME280;35527;54.616;39.786;2023-04-28T13:02:10;99513.78;;;17.19;90.70
49627;BME280;35527;54.616;39.786;2023-04-28T13:05:13;99521.56;;;17.07;95.01
49627;BME280;35527;54.616;39.786;2023-04-28T13:08:17;99533.06;;;17.05;97.32
49627;BME280;35527;54.616;39.786;2023-04-28T13:11:20;99519.41;;;16.88;100.00
49627;BME280;35527;54.616;39.786;2023-04-28T13:14:35;99468.66;;;16.91;100.00
49627;BME280;35527;54.616;39.786;2023-04-28T13:17:39;99464.47;;;17.25;100.00
49627;BME280;35527;54.616;39.786;2023-04-28T13:20:43;99451.84;;;17.19;100.00
49627;BME280;35527;54.616;39.786;2023-04-28T13:23:55;99453.69;;;17.30;100.00
49627;BME280;35527;54.616;39.786;2023-04-28T13:27:02;99455.63;;;17.39;100.00
49627;BME280;35527;54.616;39.786;2023-04-28T13:30:06;99460.09;;;17.26;100.00
49627;BME280;35527;54.616;39.786;2023-04-28T13:33:15;99471.31;;;17.15;100.00
49627;BME280;35527;54.616;39.786;2023-04-28T13:36:19;99505.97;;;17.06;100.00
49627;BME280;35527;54.616;39.786;2023-04-28T13:39:32;99520.03;;;16.92;100.00
49627;BME280;35527;54.616;39.786;2023-04-28T13:42:35;99537.69;;;16.76;100.00
49627;BME280;35527;54.616;39.786;2023-04-28T13:45:40;99535.63;;;16.42;100.00
49627;BME280;35527;54.616;39.786;2023-04-28T13:48:46;99531.53;;;16.26;100.00
49627;BME280;35527;54.616;39.786;2023-04-28T13:51:59;99534.50;;;16.07;100.00
49627;BME280;35527;54.616;39.786;2023-04-28T13:55:02;99529.91;;;15.97;100.00
49627;BME280;35527;54.616;39.786;2023-04-28T13:58:13;99562.94;;;15.84;100.00
49627;BME280;35527;54.616;39.786;2023-04-28T14:01:16;99600.47;;;15.69;100.00
49627;BME280;35527;54.616;39.786;2023-04-28T14:04:22;99594.28;;;15.43;100.00
49627;BME280;35527;54.616;39.786;2023-04-28T14:07:26;99577.28;;;14.94;100.00
49627;BME280;35527;54.616;39.786;2023-04-28T14:10:29;99546.28;;;14.61;100.00
49627;BME280;35527;54.616;39.786;2023-04-28T14:13:33;99538.75;;;14.26;100.00
49627;BME280;35527;54.616;39.786;2023-04-28T14:16:39;99540.72;;;14.23;100.00
49627;BME280;35527;54.616;39.786;2023-04-28T14:19:43;99536.97;;;14.12;100.00
49627;BME280;35527;54.616;39.786;2023-04-28T14:22:46;99525.25;;;14.05;100.00
49627;BME280;35527;54.616;39.786;2023-04-28T14:25:54;99523.38;;;14.07;100.00
49627;BME280;35527;54.616;39.786;2023-04-28T14:29:00;99533.22;;;14.02;100.00
49627;BME280;35527;54.616;39.786;2023-04-28T14:32:03;99521.84;;;13.89;100.00
49627;BME280;35527;54.616;39.786;2023-04-28T14:35:06;99530.91;;;13.82;100.00
49627;BME280;35527;54.616;39.786;2023-04-28T14:38:13;99522.41;;;13.64;100.00
49627;BME280;35527;54.616;39.786;2023-04-28T14:41:20;99527.69;;;13.62;100.00
49627;BME280;35527;54.616;39.786;2023-04-28T14:44:23;99519.22;;;13.59;100.00
49627;BME280;35527;54.616;39.786;2023-04-28T14:47:28;99509.97;;;13.69;100.00
49627;BME280;35527;54.616;39.786;2023-04-28T14:50:31;99500.88;;;13.76;100.00
49627;BME280;35527;54.616;39.786;2023-04-28T14:53:39;99507.97;;;13.74;100.00
49627;BME280;35527;54.616;39.786;2023-04-28T14:56:42;99499.22;;;13.75;100.00
49627;BME280;35527;54.616;39.786;2023-04-28T14:59:45;99480.59;;;13.67;100.00
49627;BME280;35527;54.616;39.786;2023-04-28T15:02:48;99510.78;;;13.85;100.00
49627;BME280;35527;54.616;39.786;2023-04-28T15:05:52;99484.94;;;13.82;100.00
49627;BME280;35527;54.616;39.786;2023-04-28T15:08:56;99487.22;;;14.03;100.00
49627;BME280;35527;54.616;39.786;2023-04-28T15:12:01;99496.66;;;14.19;100.00
49627;BME280;35527;54.616;39.786;2023-04-28T15:15:07;99497.03;;;14.42;100.00
49627;BME280;35527;54.616;39.786;2023-04-28T15:18:13;99495.59;;;14.52;100.00
49627;BME280;35527;54.616;39.786;2023-04-28T15:21:19;99475.84;;;14.48;100.00
49627;BME280;35527;54.616;39.786;2023-04-28T15:24:23;99468.50;;;14.40;100.00
49627;BME280;35527;54.616;39.786;2023-04-28T15:27:27;99471.31;;;14.52;100.00
49627;BME280;35527;54.616;39.786;2023-04-28T15:30:31;99478.19;;;14.67;100.00
49627;BME280;35527;54.616;39.786;2023-04-28T15:33:35;99466.75;;;14.70;100.00
49627;BME280;35527;54.616;39.786;2023-04-28T15:36:38;99464.50;;;14.78;100.00
49627;BME280;35527;54.616;39.786;2023-04-28T15:39:43;99460.13;;;14.78;100.00
49627;BME280;35527;54.616;39.786;2023-04-28T15:42:47;99457.34;;;14.67;100.00
49627;BME280;35527;54.616;39.786;2023-04-28T15:45:51;99454.00;;;14.51;100.00
49627;BME280;35527;54.616;39.786;2023-04-28T15:48:55;99428.69;;;14.38;100.00
49627;BME280;35527;54.616;39.786;2023-04-28T15:51:58;99447.88;;;14.52;100.00
49627;BME280;35527;54.616;39.786;2023-04-28T15:55:06;99431.22;;;14.40;100.00
49627;BME280;35527;54.616;39.786;2023-04-28T15:58:12;99446.06;;;14.38;100.00
49627;BME280;35527;54.616;39.786;2023-04-28T16:01:15;99444.50;;;14.35;100.00
49627;BME280;35527;54.616;39.786;2023-04-28T16:04:22;99442.53;;;14.25;100.00
49627;BME280;35527;54.616;39.786;2023-04-28T16:07:27;99422.00;;;14.06;100.00
49627;BME280;35527;54.616;39.786;2023-04-28T16:10:32;99438.00;;;14.42;100.00
49627;BME280;35527;54.616;39.786;2023-04-28T16:13:35;99452.13;;;14.53;100.00
49627;BME280;35527;54.616;39.786;2023-04-28T16:16:39;99439.47;;;14.18;100.00
49627;BME280;35527;54.616;39.786;2023-04-28T16:19:45;99439.44;;;14.04;100.00